Main page
METAR-TAF:

METAR-TAF

Airports :

Stord Airport. Sørstokken

Stord, Norway

latitude: 59-48N, longitude: 005-21E, elevation: 49 m

Current weather observation

The report was made 31 minutes ago, at 12:20 UTC
Wind 6 kt from the South/Southwest, varying between South/Southeast and Southwest
Temperature 18°C
Humidity 59%
Pressure 1014 hPa
Visibility 10 km or more
Few clouds at a height of 3000 ft
Scattered clouds at a height of 10000 ft

METAR: ENSO 211220Z 20006KT 160V230 9999 FEW030 SCT100 18/10 Q1014

Time: 14:51 (12:51 UTC)

Forecast

The report was made 1 hour and 51 minutes ago, at 11:00 UTC
Forecast valid from 21 at 12 UTC to 21 at 18 UTC
Wind 8 kt from the South/Southwest
Visibility 10 km or more
Few clouds at a height of 3000 ft

TAF: ENSO 211100Z 2112/2118 20008KT 9999 FEW030

Weather observations and forecasts of more than 4000 airports (METAR and TAF reports).

The available stations are represented by yellow and red dots on the map.

Hover mouse over dot to see the name of the station.

Then click to see weather observations and forecasts.

To change the map : click on the green buttons with a black cross to zoom in, on the green button with a dash to zoom out, or on the green arrows for adjacent maps.


METAR-TAF: